sensor_id;sensor_type;location;lat;lon;timestamp;temperature;humidity
6307;DHT22;3186;54.062;9.962;2024-01-16T00:04:55;-0.30;99.90
6307;DHT22;3186;54.062;9.962;2024-01-16T00:07:20;-0.30;99.90
6307;DHT22;3186;54.062;9.962;2024-01-16T00:09:46;-0.30;99.90
6307;DHT22;3186;54.062;9.962;2024-01-16T00:12:12;-1.90;99.90
6307;DHT22;3186;54.062;9.962;2024-01-16T00:14:37;-0.30;99.90
6307;DHT22;3186;54.062;9.962;2024-01-16T00:17:03;-0.30;99.90
6307;DHT22;3186;54.062;9.962;2024-01-16T00:19:29;-0.30;99.90
6307;DHT22;3186;54.062;9.962;2024-01-16T00:21:55;-0.30;99.90
6307;DHT22;3186;54.062;9.962;2024-01-16T00:24:20;-0.40;99.90
6307;DHT22;3186;54.062;9.962;2024-01-16T00:26:46;-0.30;99.90
6307;DHT22;3186;54.062;9.962;2024-01-16T00:29:12;-0.40;99.90
6307;DHT22;3186;54.062;9.962;2024-01-16T00:31:40;-0.40;99.90
6307;DHT22;3186;54.062;9.962;2024-01-16T00:34:06;0.00;99.90
6307;DHT22;3186;54.062;9.962;2024-01-16T00:36:32;-0.40;99.90
6307;DHT22;3186;54.062;9.962;2024-01-16T00:38:57;-0.40;99.90
6307;DHT22;3186;54.062;9.962;2024-01-16T00:41:23;-0.40;99.90
6307;DHT22;3186;54.062;9.962;2024-01-16T00:43:48;-0.40;99.90
6307;DHT22;3186;54.062;9.962;2024-01-16T00:46:14;-0.40;99.90
6307;DHT22;3186;54.062;9.962;2024-01-16T00:48:40;-0.40;99.90
6307;DHT22;3186;54.062;9.962;2024-01-16T00:51:05;-0.40;99.90
6307;DHT22;3186;54.062;9.962;2024-01-16T00:53:31;-0.50;99.90
6307;DHT22;3186;54.062;9.962;2024-01-16T00:55:56;-0.40;99.90
6307;DHT22;3186;54.062;9.962;2024-01-16T00:58:22;-0.40;99.90
6307;DHT22;3186;54.062;9.962;2024-01-16T01:00:48;-0.40;99.90
6307;DHT22;3186;54.062;9.962;2024-01-16T01:03:14;-0.40;99.90
6307;DHT22;3186;54.062;9.962;2024-01-16T01:05:40;-0.40;99.90
6307;DHT22;3186;54.062;9.962;2024-01-16T01:08:06;-0.40;99.90
6307;DHT22;3186;54.062;9.962;2024-01-16T01:10:33;-0.40;99.90
6307;DHT22;3186;54.062;9.962;2024-01-16T01:12:58;-0.40;99.90
6307;DHT22;3186;54.062;9.962;2024-01-16T01:15:24;-0.40;99.90
6307;DHT22;3186;54.062;9.962;2024-01-16T01:17:50;-0.40;99.90
6307;DHT22;3186;54.062;9.962;2024-01-16T01:20:18;-0.40;99.90
6307;DHT22;3186;54.062;9.962;2024-01-16T01:22:44;-0.40;99.90
6307;DHT22;3186;54.062;9.962;2024-01-16T01:25:11;-0.40;99.90
6307;DHT22;3186;54.062;9.962;2024-01-16T01:27:37;-0.40;99.90
6307;DHT22;3186;54.062;9.962;2024-01-16T01:30:03;-0.40;99.90
6307;DHT22;3186;54.062;9.962;2024-01-16T01:32:29;-0.40;99.90
6307;DHT22;3186;54.062;9.962;2024-01-16T01:34:54;-0.40;99.90
6307;DHT22;3186;54.062;9.962;2024-01-16T01:37:20;-0.50;99.90
6307;DHT22;3186;54.062;9.962;2024-01-16T01:39:46;-0.50;99.90
6307;DHT22;3186;54.062;9.962;2024-01-16T01:42:11;-0.50;99.90
6307;DHT22;3186;54.062;9.962;2024-01-16T01:44:37;-0.50;99.90
6307;DHT22;3186;54.062;9.962;2024-01-16T01:47:03;-0.50;99.90
6307;DHT22;3186;54.062;9.962;2024-01-16T01:49:31;-0.60;99.90
6307;DHT22;3186;54.062;9.962;2024-01-16T01:51:57;-0.60;99.90
6307;DHT22;3186;54.062;9.962;2024-01-16T01:54:24;-0.60;99.90
6307;DHT22;3186;54.062;9.962;2024-01-16T01:56:50;-0.60;99.90
6307;DHT22;3186;54.062;9.962;2024-01-16T01:59:18;-0.60;99.90
6307;DHT22;3186;54.062;9.962;2024-01-16T02:01:45;-0.60;99.90
6307;DHT22;3186;54.062;9.962;2024-01-16T02:04:14;-0.60;99.90
6307;DHT22;3186;54.062;9.962;2024-01-16T02:06:42;-0.60;99.90
6307;DHT22;3186;54.062;9.962;2024-01-16T02:09:08;-0.70;99.90
6307;DHT22;3186;54.062;9.962;2024-01-16T02:11:33;-0.70;99.90
6307;DHT22;3186;54.062;9.962;2024-01-16T02:13:59;-0.70;99.90
6307;DHT22;3186;54.062;9.962;2024-01-16T02:16:24;-0.70;99.90
6307;DHT22;3186;54.062;9.962;2024-01-16T02:18:51;-0.70;99.90
6307;DHT22;3186;54.062;9.962;2024-01-16T02:21:21;-0.70;99.90
6307;DHT22;3186;54.062;9.962;2024-01-16T02:23:48;-0.70;99.90
6307;DHT22;3186;54.062;9.962;2024-01-16T02:26:20;-0.70;99.90
6307;DHT22;3186;54.062;9.962;2024-01-16T02:28:46;-0.80;99.90
6307;DHT22;3186;54.062;9.962;2024-01-16T02:31:12;-0.80;99.90
6307;DHT22;3186;54.062;9.962;2024-01-16T02:33:37;-0.80;99.90
6307;DHT22;3186;54.062;9.962;2024-01-16T02:36:03;-0.80;99.90
6307;DHT22;3186;54.062;9.962;2024-01-16T02:38:29;-0.80;99.90
6307;DHT22;3186;54.062;9.962;2024-01-16T02:40:55;-0.80;99.90
6307;DHT22;3186;54.062;9.962;2024-01-16T02:43:20;-0.80;99.90
6307;DHT22;3186;54.062;9.962;2024-01-16T02:45:46;-0.80;99.90
6307;DHT22;3186;54.062;9.962;2024-01-16T02:48:12;-0.80;99.90
6307;DHT22;3186;54.062;9.962;2024-01-16T02:50:37;-0.80;99.90
6307;DHT22;3186;54.062;9.962;2024-01-16T02:53:04;-0.90;99.90
6307;DHT22;3186;54.062;9.962;2024-01-16T02:55:29;-0.90;99.90
6307;DHT22;3186;54.062;9.962;2024-01-16T02:57:55;-0.90;99.90
6307;DHT22;3186;54.062;9.962;2024-01-16T03:00:20;-0.90;99.90
6307;DHT22;3186;54.062;9.962;2024-01-16T03:02:48;-0.90;99.90
6307;DHT22;3186;54.062;9.962;2024-01-16T03:05:14;-0.90;99.90
6307;DHT22;3186;54.062;9.962;2024-01-16T03:07:40;-1.00;99.90
6307;DHT22;3186;54.062;9.962;2024-01-16T03:10:06;-1.00;99.90
6307;DHT22;3186;54.062;9.962;2024-01-16T03:12:32;-1.00;99.90
6307;DHT22;3186;54.062;9.962;2024-01-16T03:14:58;-1.00;99.90
6307;DHT22;3186;54.062;9.962;2024-01-16T03:17:24;-1.00;99.90
6307;DHT22;3186;54.062;9.962;2024-01-16T03:19:49;-1.00;99.90
6307;DHT22;3186;54.062;9.962;2024-01-16T03:22:15;-1.10;99.90
6307;DHT22;3186;54.062;9.962;2024-01-16T03:24:40;-1.10;99.90
6307;DHT22;3186;54.062;9.962;2024-01-16T03:27:06;-1.10;99.90
6307;DHT22;3186;54.062;9.962;2024-01-16T03:29:32;-1.10;99.90
6307;DHT22;3186;54.062;9.962;2024-01-16T03:31:59;-1.20;99.90
6307;DHT22;3186;54.062;9.962;2024-01-16T03:34:25;-1.20;99.90
6307;DHT22;3186;54.062;9.962;2024-01-16T03:36:50;-1.20;99.90
6307;DHT22;3186;54.062;9.962;2024-01-16T03:39:16;-1.20;99.90
6307;DHT22;3186;54.062;9.962;2024-01-16T03:41:41;-1.20;99.90
6307;DHT22;3186;54.062;9.962;2024-01-16T03:44:07;-1.20;99.90
6307;DHT22;3186;54.062;9.962;2024-01-16T03:46:33;-1.30;99.90
6307;DHT22;3186;54.062;9.962;2024-01-16T03:48:58;-1.30;99.90
6307;DHT22;3186;54.062;9.962;2024-01-16T03:51:24;-1.30;99.90
6307;DHT22;3186;54.062;9.962;2024-01-16T03:53:49;-1.30;99.90
6307;DHT22;3186;54.062;9.962;2024-01-16T03:56:15;-1.30;99.90
6307;DHT22;3186;54.062;9.962;2024-01-16T03:58:42;-1.30;99.90
6307;DHT22;3186;54.062;9.962;2024-01-16T04:01:09;-1.30;99.90
6307;DHT22;3186;54.062;9.962;2024-01-16T04:03:34;-1.30;99.90
6307;DHT22;3186;54.062;9.962;2024-01-16T04:06:00;-1.30;99.90
6307;DHT22;3186;54.062;9.962;2024-01-16T04:08:26;-1.30;99.90
6307;DHT22;3186;54.062;9.962;2024-01-16T04:10:52;-1.40;99.90
6307;DHT22;3186;54.062;9.962;2024-01-16T04:13:17;-1.30;99.90
6307;DHT22;3186;54.062;9.962;2024-01-16T04:15:43;-1.40;99.90
6307;DHT22;3186;54.062;9.962;2024-01-16T04:18:09;-1.30;99.90
6307;DHT22;3186;54.062;9.962;2024-01-16T04:20:35;-1.30;99.90
6307;DHT22;3186;54.062;9.962;2024-01-16T04:23:01;-1.30;99.90
6307;DHT22;3186;54.062;9.962;2024-01-16T04:25:27;-1.30;99.90
6307;DHT22;3186;54.062;9.962;2024-01-16T04:27:52;-1.30;99.90
6307;DHT22;3186;54.062;9.962;2024-01-16T04:30:18;-1.30;99.90
6307;DHT22;3186;54.062;9.962;2024-01-16T04:32:45;-1.30;99.90
6307;DHT22;3186;54.062;9.962;2024-01-16T04:35:11;-1.40;99.90
6307;DHT22;3186;54.062;9.962;2024-01-16T04:37:37;-1.30;99.90
6307;DHT22;3186;54.062;9.962;2024-01-16T04:40:03;-1.30;99.90
6307;DHT22;3186;54.062;9.962;2024-01-16T04:42:31;-1.40;99.90
6307;DHT22;3186;54.062;9.962;2024-01-16T04:44:57;-1.30;99.90
6307;DHT22;3186;54.062;9.962;2024-01-16T04:47:23;-1.40;99.90
6307;DHT22;3186;54.062;9.962;2024-01-16T04:49:48;-1.40;99.90
6307;DHT22;3186;54.062;9.962;2024-01-16T04:52:14;-1.40;99.90
6307;DHT22;3186;54.062;9.962;2024-01-16T04:54:39;-1.30;99.90
6307;DHT22;3186;54.062;9.962;2024-01-16T04:57:05;-1.30;99.90
6307;DHT22;3186;54.062;9.962;2024-01-16T04:59:31;-1.30;99.90
6307;DHT22;3186;54.062;9.962;2024-01-16T05:01:56;-1.30;99.90
6307;DHT22;3186;54.062;9.962;2024-01-16T05:04:22;-1.20;99.90
6307;DHT22;3186;54.062;9.962;2024-01-16T05:06:50;-1.20;99.90
6307;DHT22;3186;54.062;9.962;2024-01-16T05:09:17;-1.20;99.90
6307;DHT22;3186;54.062;9.962;2024-01-16T05:11:43;-1.20;99.90
6307;DHT22;3186;54.062;9.962;2024-01-16T05:14:08;-1.20;99.90
6307;DHT22;3186;54.062;9.962;2024-01-16T05:16:34;-1.20;99.90
6307;DHT22;3186;54.062;9.962;2024-01-16T05:19:00;-1.20;99.90
6307;DHT22;3186;54.062;9.962;2024-01-16T05:21:25;-1.30;99.90
6307;DHT22;3186;54.062;9.962;2024-01-16T05:23:51;-1.20;99.90
6307;DHT22;3186;54.062;9.962;2024-01-16T05:26:16;-1.20;99.90
6307;DHT22;3186;54.062;9.962;2024-01-16T05:28:42;-1.20;99.90
6307;DHT22;3186;54.062;9.962;2024-01-16T05:31:08;-1.20;99.90
6307;DHT22;3186;54.062;9.962;2024-01-16T05:33:33;-1.20;99.90
6307;DHT22;3186;54.062;9.962;2024-01-16T05:35:59;-1.20;99.90
6307;DHT22;3186;54.062;9.962;2024-01-16T05:38:25;-1.20;99.90
6307;DHT22;3186;54.062;9.962;2024-01-16T05:40:50;0.70;99.90
6307;DHT22;3186;54.062;9.962;2024-01-16T05:43:17;-1.20;99.90
6307;DHT22;3186;54.062;9.962;2024-01-16T05:45:43;-1.20;99.90
6307;DHT22;3186;54.062;9.962;2024-01-16T05:48:08;-1.10;99.90
6307;DHT22;3186;54.062;9.962;2024-01-16T05:50:35;-1.10;99.90
6307;DHT22;3186;54.062;9.962;2024-01-16T05:53:01;-1.10;99.90
6307;DHT22;3186;54.062;9.962;2024-01-16T05:55:27;-1.10;99.90
6307;DHT22;3186;54.062;9.962;2024-01-16T05:57:54;-1.10;99.90
6307;DHT22;3186;54.062;9.962;2024-01-16T06:00:20;-1.10;99.90
6307;DHT22;3186;54.062;9.962;2024-01-16T06:02:48;-1.00;99.90
6307;DHT22;3186;54.062;9.962;2024-01-16T06:05:14;-1.00;99.90
6307;DHT22;3186;54.062;9.962;2024-01-16T06:07:40;-1.10;99.90
6307;DHT22;3186;54.062;9.962;2024-01-16T06:10:06;-1.00;99.90
6307;DHT22;3186;54.062;9.962;2024-01-16T06:12:31;-1.00;99.90
6307;DHT22;3186;54.062;9.962;2024-01-16T06:14:58;-1.00;99.90
6307;DHT22;3186;54.062;9.962;2024-01-16T06:17:23;-1.00;99.90
6307;DHT22;3186;54.062;9.962;2024-01-16T06:19:49;-1.00;99.90
6307;DHT22;3186;54.062;9.962;2024-01-16T06:22:14;-1.00;99.90
6307;DHT22;3186;54.062;9.962;2024-01-16T06:24:40;-1.00;99.90
6307;DHT22;3186;54.062;9.962;2024-01-16T06:27:06;-1.00;99.90
6307;DHT22;3186;54.062;9.962;2024-01-16T06:29:32;-0.90;99.90
6307;DHT22;3186;54.062;9.962;2024-01-16T06:31:58;-1.00;99.90
6307;DHT22;3186;54.062;9.962;2024-01-16T06:34:24;-1.00;99.90
6307;DHT22;3186;54.062;9.962;2024-01-16T06:36:50;-1.00;99.90
6307;DHT22;3186;54.062;9.962;2024-01-16T06:39:15;-1.00;99.90
6307;DHT22;3186;54.062;9.962;2024-01-16T06:41:41;-1.00;99.90
6307;DHT22;3186;54.062;9.962;2024-01-16T06:44:07;-0.90;99.90
6307;DHT22;3186;54.062;9.962;2024-01-16T06:46:33;-1.00;99.90
6307;DHT22;3186;54.062;9.962;2024-01-16T06:49:00;-0.90;99.90
6307;DHT22;3186;54.062;9.962;2024-01-16T06:51:26;-0.90;99.90
6307;DHT22;3186;54.062;9.962;2024-01-16T06:53:51;-0.90;99.90
6307;DHT22;3186;54.062;9.962;2024-01-16T06:56:17;-0.90;99.90
6307;DHT22;3186;54.062;9.962;2024-01-16T06:58:42;-0.90;99.90
6307;DHT22;3186;54.062;9.962;2024-01-16T07:01:09;-0.90;99.90
6307;DHT22;3186;54.062;9.962;2024-01-16T07:03:35;-0.90;99.90
6307;DHT22;3186;54.062;9.962;2024-01-16T07:06:01;-0.80;99.90
6307;DHT22;3186;54.062;9.962;2024-01-16T07:08:26;-0.90;99.90
6307;DHT22;3186;54.062;9.962;2024-01-16T07:10:52;-0.80;99.90
6307;DHT22;3186;54.062;9.962;2024-01-16T07:13:19;-0.80;99.90
6307;DHT22;3186;54.062;9.962;2024-01-16T07:15:44;-0.80;99.90
6307;DHT22;3186;54.062;9.962;2024-01-16T07:18:10;-0.80;99.90
6307;DHT22;3186;54.062;9.962;2024-01-16T07:20:35;-0.80;99.90
6307;DHT22;3186;54.062;9.962;2024-01-16T07:23:01;-0.70;99.90
6307;DHT22;3186;54.062;9.962;2024-01-16T07:25:27;-0.70;99.90
6307;DHT22;3186;54.062;9.962;2024-01-16T07:27:52;-0.70;99.90
6307;DHT22;3186;54.062;9.962;2024-01-16T07:30:18;-0.70;99.90
6307;DHT22;3186;54.062;9.962;2024-01-16T07:32:44;-0.70;99.90
6307;DHT22;3186;54.062;9.962;2024-01-16T07:35:09;-0.70;99.90
6307;DHT22;3186;54.062;9.962;2024-01-16T07:37:35;-0.70;99.90
6307;DHT22;3186;54.062;9.962;2024-01-16T07:40:01;-0.70;99.90
6307;DHT22;3186;54.062;9.962;2024-01-16T07:42:26;-0.70;99.90
6307;DHT22;3186;54.062;9.962;2024-01-16T07:44:59;-0.60;99.90
6307;DHT22;3186;54.062;9.962;2024-01-16T07:47:24;-0.60;99.90
6307;DHT22;3186;54.062;9.962;2024-01-16T07:49:50;-0.60;99.90
6307;DHT22;3186;54.062;9.962;2024-01-16T07:52:16;-0.60;99.90
6307;DHT22;3186;54.062;9.962;2024-01-16T07:54:41;-0.60;99.90
6307;DHT22;3186;54.062;9.962;2024-01-16T07:57:07;-0.60;99.90
6307;DHT22;3186;54.062;9.962;2024-01-16T07:59:32;-0.60;99.90
6307;DHT22;3186;54.062;9.962;2024-01-16T08:01:58;-0.60;99.90
6307;DHT22;3186;54.062;9.962;2024-01-16T08:04:24;-0.50;99.90
6307;DHT22;3186;54.062;9.962;2024-01-16T08:06:49;-0.50;99.90
6307;DHT22;3186;54.062;9.962;2024-01-16T08:09:15;-0.60;99.90
6307;DHT22;3186;54.062;9.962;2024-01-16T08:11:41;-0.60;99.90
6307;DHT22;3186;54.062;9.962;2024-01-16T08:14:06;-0.50;99.90
6307;DHT22;3186;54.062;9.962;2024-01-16T08:16:32;-0.50;99.90
6307;DHT22;3186;54.062;9.962;2024-01-16T08:18:58;-0.40;99.90
6307;DHT22;3186;54.062;9.962;2024-01-16T08:21:23;-0.40;99.90
6307;DHT22;3186;54.062;9.962;2024-01-16T08:23:49;-0.40;99.90
6307;DHT22;3186;54.062;9.962;2024-01-16T08:26:15;-0.40;99.90
6307;DHT22;3186;54.062;9.962;2024-01-16T08:28:40;-0.40;99.90
6307;DHT22;3186;54.062;9.962;2024-01-16T08:31:06;-0.40;99.90
6307;DHT22;3186;54.062;9.962;2024-01-16T08:33:32;-0.40;99.90
6307;DHT22;3186;54.062;9.962;2024-01-16T08:35:57;-0.40;99.90
6307;DHT22;3186;54.062;9.962;2024-01-16T08:38:23;-0.30;99.90
6307;DHT22;3186;54.062;9.962;2024-01-16T08:40:48;-0.30;99.90
6307;DHT22;3186;54.062;9.962;2024-01-16T08:43:14;-0.30;99.90
6307;DHT22;3186;54.062;9.962;2024-01-16T08:45:40;-0.20;99.90
6307;DHT22;3186;54.062;9.962;2024-01-16T08:48:05;-0.30;99.90
6307;DHT22;3186;54.062;9.962;2024-01-16T08:50:31;-0.20;99.90
6307;DHT22;3186;54.062;9.962;2024-01-16T08:52:57;-0.20;99.90
6307;DHT22;3186;54.062;9.962;2024-01-16T08:55:22;-0.20;99.90
6307;DHT22;3186;54.062;9.962;2024-01-16T08:57:48;-0.20;99.90
6307;DHT22;3186;54.062;9.962;2024-01-16T09:00:14;-0.20;99.90
6307;DHT22;3186;54.062;9.962;2024-01-16T09:02:40;-0.20;99.90
6307;DHT22;3186;54.062;9.962;2024-01-16T09:05:06;-0.10;99.90
6307;DHT22;3186;54.062;9.962;2024-01-16T09:07:32;-0.10;99.90
6307;DHT22;3186;54.062;9.962;2024-01-16T09:09:58;-0.10;99.90
6307;DHT22;3186;54.062;9.962;2024-01-16T09:12:23;-0.10;99.90
6307;DHT22;3186;54.062;9.962;2024-01-16T09:14:49;0.00;99.90
6307;DHT22;3186;54.062;9.962;2024-01-16T09:17:15;0.00;99.90
6307;DHT22;3186;54.062;9.962;2024-01-16T09:19:40;0.00;99.90
6307;DHT22;3186;54.062;9.962;2024-01-16T09:22:06;0.00;99.90
6307;DHT22;3186;54.062;9.962;2024-01-16T09:24:32;0.10;99.90
6307;DHT22;3186;54.062;9.962;2024-01-16T09:26:58;0.10;99.90
6307;DHT22;3186;54.062;9.962;2024-01-16T09:29:23;0.00;99.90
6307;DHT22;3186;54.062;9.962;2024-01-16T09:31:50;0.00;99.90
6307;DHT22;3186;54.062;9.962;2024-01-16T09:34:17;0.10;99.90
6307;DHT22;3186;54.062;9.962;2024-01-16T09:36:43;0.20;99.90
6307;DHT22;3186;54.062;9.962;2024-01-16T09:39:09;0.20;99.90
6307;DHT22;3186;54.062;9.962;2024-01-16T09:41:39;0.20;99.90
6307;DHT22;3186;54.062;9.962;2024-01-16T09:44:06;0.20;99.90
6307;DHT22;3186;54.062;9.962;2024-01-16T09:46:34;0.20;99.90
6307;DHT22;3186;54.062;9.962;2024-01-16T09:49:02;0.20;99.90
6307;DHT22;3186;54.062;9.962;2024-01-16T09:51:28;0.30;99.90
6307;DHT22;3186;54.062;9.962;2024-01-16T09:53:54;0.30;99.90
6307;DHT22;3186;54.062;9.962;2024-01-16T09:56:23;0.30;99.90
6307;DHT22;3186;54.062;9.962;2024-01-16T09:58:59;0.40;99.90
6307;DHT22;3186;54.062;9.962;2024-01-16T10:01:28;0.40;99.90
6307;DHT22;3186;54.062;9.962;2024-01-16T10:03:54;0.50;99.90
6307;DHT22;3186;54.062;9.962;2024-01-16T10:06:20;0.50;99.90
6307;DHT22;3186;54.062;9.962;2024-01-16T10:08:46;0.40;99.90
6307;DHT22;3186;54.062;9.962;2024-01-16T10:11:12;0.50;99.90
6307;DHT22;3186;54.062;9.962;2024-01-16T10:13:38;0.50;99.90
6307;DHT22;3186;54.062;9.962;2024-01-16T10:16:04;0.60;99.90
6307;DHT22;3186;54.062;9.962;2024-01-16T10:18:30;0.60;99.90
6307;DHT22;3186;54.062;9.962;2024-01-16T10:20:56;0.50;99.90
6307;DHT22;3186;54.062;9.962;2024-01-16T10:23:29;0.50;99.90
6307;DHT22;3186;54.062;9.962;2024-01-16T10:26:08;0.50;99.90
6307;DHT22;3186;54.062;9.962;2024-01-16T10:28:35;0.70;99.90
6307;DHT22;3186;54.062;9.962;2024-01-16T10:31:02;0.70;99.90
6307;DHT22;3186;54.062;9.962;2024-01-16T10:33:28;0.70;99.90
6307;DHT22;3186;54.062;9.962;2024-01-16T10:36:13;0.60;99.90
6307;DHT22;3186;54.062;9.962;2024-01-16T10:38:41;0.70;99.90
6307;DHT22;3186;54.062;9.962;2024-01-16T10:41:15;0.80;99.90
6307;DHT22;3186;54.062;9.962;2024-01-16T10:43:42;0.80;99.90
6307;DHT22;3186;54.062;9.962;2024-01-16T10:46:17;0.70;99.90
6307;DHT22;3186;54.062;9.962;2024-01-16T10:48:59;0.70;99.90
6307;DHT22;3186;54.062;9.962;2024-01-16T10:51:27;0.70;99.90
6307;DHT22;3186;54.062;9.962;2024-01-16T10:53:58;0.80;99.90
6307;DHT22;3186;54.062;9.962;2024-01-16T10:56:24;0.80;99.90
6307;DHT22;3186;54.062;9.962;2024-01-16T10:59:06;0.70;99.90
6307;DHT22;3186;54.062;9.962;2024-01-16T11:01:35;0.80;99.90
6307;DHT22;3186;54.062;9.962;2024-01-16T11:04:01;0.80;99.90
6307;DHT22;3186;54.062;9.962;2024-01-16T11:06:27;0.80;99.90
6307;DHT22;3186;54.062;9.962;2024-01-16T11:08:54;0.80;99.90
6307;DHT22;3186;54.062;9.962;2024-01-16T11:11:22;0.80;99.90
6307;DHT22;3186;54.062;9.962;2024-01-16T11:13:48;0.80;99.90
6307;DHT22;3186;54.062;9.962;2024-01-16T11:16:15;0.80;99.90
6307;DHT22;3186;54.062;9.962;2024-01-16T11:18:41;0.90;99.90
6307;DHT22;3186;54.062;9.962;2024-01-16T11:21:09;0.90;99.90
6307;DHT22;3186;54.062;9.962;2024-01-16T11:23:36;0.90;99.90
6307;DHT22;3186;54.062;9.962;2024-01-16T11:28:54;0.80;99.90
6307;DHT22;3186;54.062;9.962;2024-01-16T11:31:32;0.80;99.90
6307;DHT22;3186;54.062;9.962;2024-01-16T11:33:59;0.90;99.90
6307;DHT22;3186;54.062;9.962;2024-01-16T11:36:47;0.80;99.90
6307;DHT22;3186;54.062;9.962;2024-01-16T11:39:19;0.90;99.90
6307;DHT22;3186;54.062;9.962;2024-01-16T11:41:54;0.90;99.90
6307;DHT22;3186;54.062;9.962;2024-01-16T11:47:04;0.80;99.90
6307;DHT22;3186;54.062;9.962;2024-01-16T11:49:30;0.80;99.90
6307;DHT22;3186;54.062;9.962;2024-01-16T11:51:57;0.80;99.90
6307;DHT22;3186;54.062;9.962;2024-01-16T11:54:23;0.90;99.90
6307;DHT22;3186;54.062;9.962;2024-01-16T12:02:23;0.90;99.90
6307;DHT22;3186;54.062;9.962;2024-01-16T12:04:54;0.90;99.90
6307;DHT22;3186;54.062;9.962;2024-01-16T12:07:22;0.90;99.90
6307;DHT22;3186;54.062;9.962;2024-01-16T12:09:48;0.90;99.90
6307;DHT22;3186;54.062;9.962;2024-01-16T12:12:15;0.90;99.90
6307;DHT22;3186;54.062;9.962;2024-01-16T12:14:41;0.90;99.90
6307;DHT22;3186;54.062;9.962;2024-01-16T12:17:12;1.00;99.90
6307;DHT22;3186;54.062;9.962;2024-01-16T12:19:39;0.90;99.90
6307;DHT22;3186;54.062;9.962;2024-01-16T12:22:10;1.00;99.90
6307;DHT22;3186;54.062;9.962;2024-01-16T12:24:38;1.00;99.90
6307;DHT22;3186;54.062;9.962;2024-01-16T12:27:05;1.00;99.90
6307;DHT22;3186;54.062;9.962;2024-01-16T12:29:32;1.00;99.90
6307;DHT22;3186;54.062;9.962;2024-01-16T12:32:11;1.00;99.90
6307;DHT22;3186;54.062;9.962;2024-01-16T12:35:03;1.00;99.90
6307;DHT22;3186;54.062;9.962;2024-01-16T12:37:29;1.10;99.90
6307;DHT22;3186;54.062;9.962;2024-01-16T12:39:55;1.10;99.90
6307;DHT22;3186;54.062;9.962;2024-01-16T12:42:23;1.10;99.90
6307;DHT22;3186;54.062;9.962;2024-01-16T12:44:50;1.20;99.90
6307;DHT22;3186;54.062;9.962;2024-01-16T12:47:16;1.20;99.90
6307;DHT22;3186;54.062;9.962;2024-01-16T12:49:42;1.10;99.90
6307;DHT22;3186;54.062;9.962;2024-01-16T12:54:40;1.10;99.90
6307;DHT22;3186;54.062;9.962;2024-01-16T12:57:06;1.10;99.90
6307;DHT22;3186;54.062;9.962;2024-01-16T12:59:32;1.10;99.90
6307;DHT22;3186;54.062;9.962;2024-01-16T13:01:58;1.10;99.90
6307;DHT22;3186;54.062;9.962;2024-01-16T13:04:23;1.10;99.90
6307;DHT22;3186;54.062;9.962;2024-01-16T13:06:49;1.10;99.90
6307;DHT22;3186;54.062;9.962;2024-01-16T13:09:15;1.10;99.90
6307;DHT22;3186;54.062;9.962;2024-01-16T13:11:51;1.10;99.90
6307;DHT22;3186;54.062;9.962;2024-01-16T13:14:20;1.10;99.90
6307;DHT22;3186;54.062;9.962;2024-01-16T13:16:47;1.10;99.90
6307;DHT22;3186;54.062;9.962;2024-01-16T13:19:16;1.20;99.90
6307;DHT22;3186;54.062;9.962;2024-01-16T13:21:42;1.20;99.90
6307;DHT22;3186;54.062;9.962;2024-01-16T13:24:07;1.20;99.90
6307;DHT22;3186;54.062;9.962;2024-01-16T13:26:33;1.20;99.90
6307;DHT22;3186;54.062;9.962;2024-01-16T13:29:00;1.20;99.90
6307;DHT22;3186;54.062;9.962;2024-01-16T13:31:26;1.20;99.90
6307;DHT22;3186;54.062;9.962;2024-01-16T13:33:51;1.20;99.90
6307;DHT22;3186;54.062;9.962;2024-01-16T13:36:17;1.20;99.90
6307;DHT22;3186;54.062;9.962;2024-01-16T13:38:42;1.20;99.90
6307;DHT22;3186;54.062;9.962;2024-01-16T13:41:08;1.10;99.90
6307;DHT22;3186;54.062;9.962;2024-01-16T13:43:34;1.20;99.90
6307;DHT22;3186;54.062;9.962;2024-01-16T13:45:59;1.20;99.90
6307;DHT22;3186;54.062;9.962;2024-01-16T13:48:25;1.10;99.90
6307;DHT22;3186;54.062;9.962;2024-01-16T13:50:50;1.20;99.90
6307;DHT22;3186;54.062;9.962;2024-01-16T13:53:16;1.20;99.90
6307;DHT22;3186;54.062;9.962;2024-01-16T13:55:42;1.20;99.90
6307;DHT22;3186;54.062;9.962;2024-01-16T13:58:08;1.20;99.90
6307;DHT22;3186;54.062;9.962;2024-01-16T14:00:34;1.30;99.90
6307;DHT22;3186;54.062;9.962;2024-01-16T14:02:59;1.20;99.90
6307;DHT22;3186;54.062;9.962;2024-01-16T14:05:25;1.20;99.90
6307;DHT22;3186;54.062;9.962;2024-01-16T14:07:52;1.30;99.90
6307;DHT22;3186;54.062;9.962;2024-01-16T14:10:19;1.30;99.90
6307;DHT22;3186;54.062;9.962;2024-01-16T14:12:46;1.30;99.90
6307;DHT22;3186;54.062;9.962;2024-01-16T14:15:15;1.20;99.90
6307;DHT22;3186;54.062;9.962;2024-01-16T14:17:49;1.40;99.90
6307;DHT22;3186;54.062;9.962;2024-01-16T14:20:15;1.30;99.90
6307;DHT22;3186;54.062;9.962;2024-01-16T14:22:42;1.30;99.90
6307;DHT22;3186;54.062;9.962;2024-01-16T14:25:12;1.30;99.90
6307;DHT22;3186;54.062;9.962;2024-01-16T14:27:41;1.30;99.90
6307;DHT22;3186;54.062;9.962;2024-01-16T14:30:11;1.30;99.90
6307;DHT22;3186;54.062;9.962;2024-01-16T14:32:41;1.30;99.90
6307;DHT22;3186;54.062;9.962;2024-01-16T14:35:08;1.30;99.90
6307;DHT22;3186;54.062;9.962;2024-01-16T14:37:38;1.30;99.90
6307;DHT22;3186;54.062;9.962;2024-01-16T14:40:05;1.30;99.90
6307;DHT22;3186;54.062;9.962;2024-01-16T14:42:41;1.30;99.90
6307;DHT22;3186;54.062;9.962;2024-01-16T14:45:08;1.30;99.90
6307;DHT22;3186;54.062;9.962;2024-01-16T14:47:34;1.30;99.90
6307;DHT22;3186;54.062;9.962;2024-01-16T14:50:00;1.30;99.90
6307;DHT22;3186;54.062;9.962;2024-01-16T14:52:25;1.30;99.90
6307;DHT22;3186;54.062;9.962;2024-01-16T14:54:51;1.30;99.90
6307;DHT22;3186;54.062;9.962;2024-01-16T14:57:18;1.30;99.90
6307;DHT22;3186;54.062;9.962;2024-01-16T14:59:43;1.30;99.90
6307;DHT22;3186;54.062;9.962;2024-01-16T15:02:10;1.30;99.90
6307;DHT22;3186;54.062;9.962;2024-01-16T15:04:42;1.20;99.90
6307;DHT22;3186;54.062;9.962;2024-01-16T15:07:08;1.30;99.90
6307;DHT22;3186;54.062;9.962;2024-01-16T15:09:34;1.20;99.90
6307;DHT22;3186;54.062;9.962;2024-01-16T15:12:04;1.20;99.90
6307;DHT22;3186;54.062;9.962;2024-01-16T15:14:31;1.30;99.90
6307;DHT22;3186;54.062;9.962;2024-01-16T15:16:57;1.30;99.90
6307;DHT22;3186;54.062;9.962;2024-01-16T15:19:23;1.20;99.90
6307;DHT22;3186;54.062;9.962;2024-01-16T15:21:49;1.20;99.90
6307;DHT22;3186;54.062;9.962;2024-01-16T15:24:14;1.20;99.90
6307;DHT22;3186;54.062;9.962;2024-01-16T15:26:54;1.30;99.90
6307;DHT22;3186;54.062;9.962;2024-01-16T15:29:20;1.30;99.90
6307;DHT22;3186;54.062;9.962;2024-01-16T15:31:46;1.30;99.90
6307;DHT22;3186;54.062;9.962;2024-01-16T15:34:22;1.30;99.90
6307;DHT22;3186;54.062;9.962;2024-01-16T15:36:47;1.30;99.90
6307;DHT22;3186;54.062;9.962;2024-01-16T15:39:13;1.30;99.90
6307;DHT22;3186;54.062;9.962;2024-01-16T15:41:43;1.30;99.90
6307;DHT22;3186;54.062;9.962;2024-01-16T15:44:09;1.30;99.90
6307;DHT22;3186;54.062;9.962;2024-01-16T15:46:58;1.30;99.90
6307;DHT22;3186;54.062;9.962;2024-01-16T15:49:25;1.30;99.90
6307;DHT22;3186;54.062;9.962;2024-01-16T15:51:51;1.30;99.90
6307;DHT22;3186;54.062;9.962;2024-01-16T15:54:17;1.30;99.90
6307;DHT22;3186;54.062;9.962;2024-01-16T15:56:42;1.30;99.90
6307;DHT22;3186;54.062;9.962;2024-01-16T15:59:08;1.30;99.90
6307;DHT22;3186;54.062;9.962;2024-01-16T16:01:39;1.30;99.90
6307;DHT22;3186;54.062;9.962;2024-01-16T16:04:06;1.30;99.90
6307;DHT22;3186;54.062;9.962;2024-01-16T16:06:35;1.30;99.90
6307;DHT22;3186;54.062;9.962;2024-01-16T16:09:01;1.30;99.90
6307;DHT22;3186;54.062;9.962;2024-01-16T16:11:27;1.30;99.90
6307;DHT22;3186;54.062;9.962;2024-01-16T16:13:53;1.30;99.90
6307;DHT22;3186;54.062;9.962;2024-01-16T16:16:19;1.30;99.90
6307;DHT22;3186;54.062;9.962;2024-01-16T16:18:44;1.30;99.90
6307;DHT22;3186;54.062;9.962;2024-01-16T16:21:11;1.30;99.90
6307;DHT22;3186;54.062;9.962;2024-01-16T16:23:37;1.30;99.90